createdAt,value
2019-01-29T00:01:09.519Z,0.42
2019-01-29T00:02:19.634Z,0.46
2019-01-29T00:03:29.750Z,0.31
2019-01-29T00:04:39.857Z,0.28
2019-01-29T00:05:49.951Z,0.31
2019-01-29T00:07:00.054Z,0.33
2019-01-29T00:08:10.168Z,0.35
2019-01-29T00:09:20.368Z,0.35
2019-01-29T00:10:30.464Z,0.31
2019-01-29T00:11:40.321Z,0.3
2019-01-29T00:12:50.181Z,0.28
2019-01-29T00:14:00.304Z,0.33
2019-01-29T00:15:10.523Z,0.36
2019-01-29T00:16:20.637Z,0.33
2019-01-29T00:17:30.737Z,0.46
2019-01-29T00:18:40.837Z,0.4
2019-01-29T00:19:50.928Z,0.4
2019-01-29T00:21:00.777Z,0.42
2019-01-29T00:22:10.905Z,0.42
2019-01-29T00:23:21.014Z,0.33
2019-01-29T00:24:31.125Z,0.36
2019-01-29T00:25:41.234Z,0.33
2019-01-29T00:26:51.336Z,0.33
2019-01-29T00:28:01.440Z,0.36
2019-01-29T00:29:11.598Z,0.33
2019-01-29T00:30:21.708Z,0.31
2019-01-29T00:31:32.440Z,0.31
2019-01-29T00:32:42.544Z,0.27
2019-01-29T00:33:52.636Z,0.25
2019-01-29T00:35:02.737Z,0.21
2019-01-29T00:36:13.052Z,0.22
2019-01-29T00:37:23.173Z,0.2
2019-01-29T00:38:33.274Z,0.2
2019-01-29T00:39:43.140Z,0.09
2019-01-29T00:40:53.237Z,0.14
2019-01-29T00:42:03.339Z,0.08
2019-01-29T00:43:13.451Z,0.03
2019-01-29T00:44:23.554Z,0.14
2019-01-29T00:45:33.666Z,0.06
2019-01-29T00:46:43.759Z,0.12
2019-01-29T00:47:53.871Z,0.02
2019-01-29T00:49:03.718Z,-0.06
2019-01-29T00:50:13.825Z,-0.02
2019-01-29T00:51:23.941Z,0.12
2019-01-29T00:52:41.612Z,0.01
2019-01-29T00:53:51.904Z,0.03
2019-01-29T00:55:02.009Z,0.01
2019-01-29T00:56:12.110Z,0.02
2019-01-29T00:57:22.447Z,-0.01
2019-01-29T00:58:32.547Z,0.05
2019-01-29T00:59:42.648Z,0.01
2019-01-29T01:00:52.966Z,0.01
2019-01-29T01:02:03.076Z,-0.02
2019-01-29T01:03:13.176Z,0.06
2019-01-29T01:04:23.255Z,-0.02
2019-01-29T01:05:33.356Z,0.01
2019-01-29T01:06:43.458Z,-0.04
2019-01-29T01:07:53.547Z,0.06
2019-01-29T01:09:03.662Z,0.08
2019-01-29T01:10:13.764Z,0.03
2019-01-29T01:11:23.663Z,0.06
2019-01-29T01:12:33.504Z,0.12
2019-01-29T01:13:43.600Z,0.14
2019-01-29T01:14:53.695Z,0.14
2019-01-29T01:16:03.806Z,0.05
2019-01-29T01:17:13.902Z,0.09
2019-01-29T01:18:24.005Z,0.16
2019-01-29T01:19:34.102Z,0.08
2019-01-29T01:20:44.220Z,0.06
2019-01-29T01:21:54.318Z,0.16
2019-01-29T01:23:04.435Z,0.14
2019-01-29T01:24:14.535Z,0.14
2019-01-29T01:25:24.378Z,0.14
2019-01-29T01:26:34.477Z,0.22
2019-01-29T01:27:44.588Z,0.22
2019-01-29T01:28:54.685Z,0.2
2019-01-29T01:30:04.543Z,0.2
2019-01-29T01:31:14.648Z,0.2
2019-01-29T01:32:24.743Z,0.22
2019-01-29T01:33:34.852Z,0.22
2019-01-29T01:34:45.025Z,0.24
2019-01-29T01:35:55.148Z,0.28
2019-01-29T01:37:05.242Z,0.28
2019-01-29T01:38:15.358Z,0.35
2019-01-29T01:39:25.453Z,0.33
2019-01-29T01:40:35.550Z,0.33
2019-01-29T01:41:45.653Z,0.28
2019-01-29T01:42:55.763Z,0.27
2019-01-29T01:44:05.866Z,0.27
2019-01-29T01:45:16.011Z,0.3
2019-01-29T01:46:26.380Z,0.3
2019-01-29T01:47:36.487Z,0.31
2019-01-29T01:48:46.870Z,0.2
2019-01-29T01:49:56.970Z,0.31
2019-01-29T01:51:07.080Z,0.28
2019-01-29T01:52:17.437Z,0.28
2019-01-29T01:53:27.852Z,0.35
2019-01-29T01:54:38.194Z,0.31
2019-01-29T01:55:48.302Z,0.22
2019-01-29T01:56:58.627Z,0.22
2019-01-29T01:58:08.741Z,0.21
2019-01-29T01:59:19.091Z,0.25
2019-01-29T02:00:29.442Z,0.3
2019-01-29T02:01:39.675Z,0.38
2019-01-29T02:02:49.774Z,0.31
2019-01-29T02:03:59.711Z,0.36
2019-01-29T02:05:09.842Z,0.33
2019-01-29T02:06:20.310Z,0.31
2019-01-29T02:07:30.439Z,0.31
2019-01-29T02:08:40.536Z,0.31
2019-01-29T02:09:50.643Z,0.33
2019-01-29T02:11:00.748Z,0.3
2019-01-29T02:12:10.852Z,0.33
2019-01-29T02:13:20.969Z,0.28
2019-01-29T02:14:31.073Z,0.42
2019-01-29T02:15:41.166Z,0.4
2019-01-29T02:16:51.264Z,0.35
2019-01-29T02:18:01.360Z,0.35
2019-01-29T02:19:11.516Z,0.3
2019-01-29T02:20:21.690Z,0.39
2019-01-29T02:21:31.789Z,0.4
2019-01-29T02:22:41.895Z,0.3
2019-01-29T02:23:51.996Z,0.39
2019-01-29T02:25:02.100Z,0.4
2019-01-29T02:26:12.201Z,0.43
2019-01-29T02:27:22.292Z,0.35
2019-01-29T02:28:32.390Z,0.31
2019-01-29T02:29:42.533Z,0.46
2019-01-29T02:30:52.641Z,0.36
2019-01-29T02:32:02.755Z,0.31
2019-01-29T02:33:12.867Z,0.3
2019-01-29T02:34:22.981Z,0.25
2019-01-29T02:35:33.077Z,0.3
2019-01-29T02:36:43.210Z,0.28
2019-01-29T02:37:53.067Z,0.25
2019-01-29T02:39:03.177Z,0.24
2019-01-29T02:40:13.277Z,0.2
2019-01-29T02:41:23.377Z,0.24
2019-01-29T02:42:33.471Z,0.2
2019-01-29T02:43:43.559Z,0.22
2019-01-29T02:44:53.651Z,0.22
2019-01-29T02:46:03.826Z,0.12
2019-01-29T02:47:13.933Z,0.2
2019-01-29T02:48:24.049Z,0.17
2019-01-29T02:49:34.157Z,0.14
2019-01-29T02:50:44.264Z,0.02
2019-01-29T02:51:54.187Z,0.06
2019-01-29T02:53:04.291Z,0.01
2019-01-29T02:54:23.412Z,0.02
2019-01-29T02:55:33.533Z,0.05
2019-01-29T02:56:43.647Z,0.02
2019-01-29T02:57:53.761Z,0.03
2019-01-29T02:59:03.853Z,0.01
2019-01-29T03:00:13.973Z,0.06
2019-01-29T03:01:24.068Z,0.06
2019-01-29T03:02:33.914Z,0.02
2019-01-29T03:03:44.031Z,-0.06
2019-01-29T03:04:56.012Z,-0.01
2019-01-29T03:06:06.108Z,-0.01
2019-01-29T03:07:16.200Z,0.03
2019-01-29T03:08:26.312Z,0.02
2019-01-29T03:09:36.420Z,0.02
2019-01-29T03:10:46.509Z,0.03
2019-01-29T03:11:56.610Z,-0.09
2019-01-29T03:13:06.462Z,-0.01
2019-01-29T03:14:16.571Z,-0.06
2019-01-29T03:15:26.669Z,-0.15
2019-01-29T03:16:36.792Z,-0.16
2019-01-29T03:17:46.882Z,-0.16
2019-01-29T03:18:57.006Z,-0.09
2019-01-29T03:20:07.104Z,-0.09
2019-01-29T03:21:17.208Z,-0.06
2019-01-29T03:22:27.321Z,-0.07
2019-01-29T03:23:37.436Z,-0.07
2019-01-29T03:24:47.545Z,-0.04
2019-01-29T03:25:57.657Z,-0.02
2019-01-29T03:27:07.803Z,-0.02
2019-01-29T03:28:17.648Z,-0.09
2019-01-29T03:29:27.515Z,-0.09
2019-01-29T03:30:37.628Z,-0.04
2019-01-29T03:31:47.778Z,-0.15
2019-01-29T03:32:57.887Z,-0.15
2019-01-29T03:34:08.055Z,-0.07
2019-01-29T03:35:18.165Z,-0.15
2019-01-29T03:36:28.271Z,-0.15
2019-01-29T03:37:38.365Z,-0.19
2019-01-29T03:38:48.480Z,-0.13
2019-01-29T03:39:58.581Z,-0.16
2019-01-29T03:41:08.629Z,-0.15
2019-01-29T03:42:18.727Z,-0.12
2019-01-29T03:43:28.822Z,-0.13
2019-01-29T03:44:38.923Z,-0.06
2019-01-29T03:45:49.026Z,-0.07
2019-01-29T03:46:59.154Z,-0.06
2019-01-29T03:48:09.261Z,-0.02
2019-01-29T03:49:19.358Z,-0.04
2019-01-29T03:50:31.592Z,0.01
2019-01-29T03:51:41.683Z,-0.04
2019-01-29T03:52:51.850Z,0.02
2019-01-29T03:54:01.945Z,0.05
2019-01-29T03:55:12.038Z,-0.06
2019-01-29T03:56:22.196Z,-0.06
2019-01-29T03:57:32.300Z,0.06
2019-01-29T03:58:42.411Z,0.03
2019-01-29T03:59:52.528Z,0.12
2019-01-29T04:01:02.624Z,0.05
2019-01-29T04:02:12.734Z,0.11
2019-01-29T04:03:22.840Z,0.11
2019-01-29T04:04:32.951Z,0.06
2019-01-29T04:05:43.040Z,0.09
2019-01-29T04:06:53.148Z,0.14
2019-01-29T04:08:03.269Z,0.17
2019-01-29T04:09:13.384Z,0.11
2019-01-29T04:10:23.498Z,0.17
2019-01-29T04:11:33.595Z,0.17
2019-01-29T04:12:43.449Z,0.14
2019-01-29T04:13:53.545Z,0.24
2019-01-29T04:15:03.658Z,0.24
2019-01-29T04:16:13.812Z,0.14
2019-01-29T04:17:23.925Z,0.17
2019-01-29T04:18:34.090Z,0.27
2019-01-29T04:19:43.929Z,0.22
2019-01-29T04:20:53.760Z,0.2
2019-01-29T04:22:03.873Z,0.24
2019-01-29T04:23:13.962Z,0.24
2019-01-29T04:24:24.062Z,0.24
2019-01-29T04:25:34.185Z,0.24
2019-01-29T04:26:44.296Z,0.28
2019-01-29T04:27:54.415Z,0.33
2019-01-29T04:29:04.513Z,0.28
2019-01-29T04:30:14.626Z,0.31
2019-01-29T04:31:24.732Z,0.31
2019-01-29T04:32:36.196Z,0.31
2019-01-29T04:33:46.162Z,0.33
2019-01-29T04:34:56.288Z,0.46
2019-01-29T04:36:06.469Z,0.33
2019-01-29T04:37:16.564Z,0.31
2019-01-29T04:38:26.657Z,0.36
2019-01-29T04:39:36.783Z,0.31
2019-01-29T04:40:46.892Z,0.3
2019-01-29T04:41:56.992Z,0.31
2019-01-29T04:43:07.132Z,0.36
2019-01-29T04:44:18.575Z,0.28
2019-01-29T04:45:28.690Z,0.31
2019-01-29T04:46:38.808Z,0.28
2019-01-29T04:47:48.952Z,0.38
2019-01-29T04:48:59.075Z,0.4
2019-01-29T04:50:09.191Z,0.35
2019-01-29T04:51:19.295Z,0.35
2019-01-29T04:52:29.406Z,0.4
2019-01-29T04:53:39.523Z,0.46
2019-01-29T04:54:49.621Z,0.49
2019-01-29T04:55:59.733Z,0.45
2019-01-29T04:57:09.845Z,0.45
2019-01-29T04:58:19.964Z,0.5
2019-01-29T04:59:30.090Z,0.43
2019-01-29T05:00:40.213Z,0.43
2019-01-29T05:01:50.332Z,0.43
2019-01-29T05:03:00.445Z,0.46
2019-01-29T05:04:10.541Z,0.58
2019-01-29T05:05:20.688Z,0.53
2019-01-29T05:06:30.869Z,0.61
2019-01-29T05:07:40.718Z,0.57
2019-01-29T05:08:50.827Z,0.57
2019-01-29T05:10:00.922Z,0.6
2019-01-29T05:11:11.031Z,0.61
2019-01-29T05:12:21.138Z,0.58
2019-01-29T05:13:30.993Z,0.56
2019-01-29T05:14:41.097Z,0.61
2019-01-29T05:15:51.214Z,0.56
2019-01-29T05:17:01.323Z,0.56
2019-01-29T05:18:11.444Z,0.6
2019-01-29T05:19:21.539Z,0.6
2019-01-29T05:20:31.653Z,0.61
2019-01-29T05:21:41.758Z,0.6
2019-01-29T05:22:51.505Z,0.6
2019-01-29T05:24:11.467Z,0.58
2019-01-29T05:25:21.561Z,0.58
2019-01-29T05:26:31.657Z,0.53
2019-01-29T05:27:41.767Z,0.58
2019-01-29T05:28:51.930Z,0.6
2019-01-29T05:30:02.034Z,0.64
2019-01-29T05:31:12.133Z,0.67
2019-01-29T05:32:22.261Z,0.66
2019-01-29T05:33:32.361Z,0.75
2019-01-29T05:34:42.457Z,0.67
2019-01-29T05:35:52.565Z,0.71
2019-01-29T05:37:02.659Z,0.64
2019-01-29T05:38:12.517Z,0.68
2019-01-29T05:39:22.624Z,0.58
2019-01-29T05:40:32.728Z,0.61
2019-01-29T05:41:42.834Z,0.63
2019-01-29T05:42:52.949Z,0.58
2019-01-29T05:44:02.705Z,0.54
2019-01-29T05:45:12.804Z,0.6
2019-01-29T05:46:25.074Z,0.57
2019-01-29T05:47:35.147Z,0.6
2019-01-29T05:48:45.251Z,0.6
2019-01-29T05:49:55.109Z,0.63
2019-01-29T05:51:05.222Z,0.57
2019-01-29T05:52:15.340Z,0.58
2019-01-29T05:53:25.435Z,0.57
2019-01-29T05:54:35.530Z,0.6
2019-01-29T05:55:45.676Z,0.58
2019-01-29T05:56:55.771Z,0.56
2019-01-29T05:58:05.615Z,0.56
2019-01-29T05:59:15.728Z,0.57
2019-01-29T06:00:25.617Z,0.57
2019-01-29T06:01:35.728Z,0.6
2019-01-29T06:02:45.907Z,0.56
2019-01-29T06:03:56.204Z,0.54
2019-01-29T06:05:06.336Z,0.5
2019-01-29T06:06:16.460Z,0.57
2019-01-29T06:07:26.566Z,0.45
2019-01-29T06:08:36.663Z,0.5
2019-01-29T06:09:46.766Z,0.46
2019-01-29T06:10:56.863Z,0.45
2019-01-29T06:12:06.987Z,0.48
2019-01-29T06:13:17.122Z,0.48
2019-01-29T06:14:27.222Z,0.45
2019-01-29T06:15:37.342Z,0.56
2019-01-29T06:16:47.444Z,0.54
2019-01-29T06:17:57.552Z,0.54
2019-01-29T06:19:07.647Z,0.63
2019-01-29T06:20:18.470Z,0.57
2019-01-29T06:21:28.814Z,0.58
2019-01-29T06:22:38.916Z,0.6
2019-01-29T06:23:48.771Z,0.64
2019-01-29T06:24:58.878Z,0.58
2019-01-29T06:26:08.998Z,0.6
2019-01-29T06:27:19.110Z,0.64
2019-01-29T06:28:29.206Z,0.72
2019-01-29T06:29:39.304Z,0.63
2019-01-29T06:30:49.414Z,0.67
2019-01-29T06:31:59.518Z,0.64
2019-01-29T06:33:09.639Z,0.68
2019-01-29T06:34:19.753Z,0.72
2019-01-29T06:35:29.881Z,0.72
2019-01-29T06:36:39.997Z,0.75
2019-01-29T06:37:50.217Z,0.81
2019-01-29T06:39:00.408Z,0.74
2019-01-29T06:40:10.511Z,0.81
2019-01-29T06:41:20.361Z,0.84
2019-01-29T06:42:30.455Z,0.79
2019-01-29T06:43:40.293Z,0.81
2019-01-29T06:44:50.414Z,0.82
2019-01-29T06:46:00.510Z,0.82
2019-01-29T06:47:10.620Z,0.84
2019-01-29T06:48:20.465Z,0.9
2019-01-29T06:49:30.561Z,0.9
2019-01-29T06:50:40.669Z,0.84
2019-01-29T06:51:51.751Z,0.84
2019-01-29T06:53:01.865Z,0.9
2019-01-29T06:54:11.966Z,0.93
2019-01-29T06:55:22.073Z,0.84
2019-01-29T06:56:32.385Z,0.92
2019-01-29T06:57:42.495Z,1
2019-01-29T06:59:00.870Z,0.88
2019-01-29T07:00:10.999Z,0.94
2019-01-29T07:01:20.847Z,0.97
2019-01-29T07:02:30.944Z,0.97
2019-01-29T07:03:41.044Z,1
2019-01-29T07:04:51.149Z,0.99
2019-01-29T07:06:01.259Z,1.04
2019-01-29T07:07:11.360Z,1.03
2019-01-29T07:08:21.454Z,1.02
2019-01-29T07:09:31.553Z,1.1
2019-01-29T07:10:41.657Z,1.08
2019-01-29T07:11:52.038Z,1.12
2019-01-29T07:13:01.905Z,0.99
2019-01-29T07:14:12.007Z,1.12
2019-01-29T07:15:22.118Z,1.15
2019-01-29T07:16:31.964Z,1.11
2019-01-29T07:17:42.066Z,1.08
2019-01-29T07:18:52.167Z,1.21
2019-01-29T07:20:02.269Z,1.2
2019-01-29T07:21:12.387Z,1.3
2019-01-29T07:22:22.552Z,1.18
2019-01-29T07:23:32.663Z,1.28
2019-01-29T07:24:47.904Z,1.22
2019-01-29T07:25:58.009Z,1.18
2019-01-29T07:27:08.119Z,1.18
2019-01-29T07:28:18.453Z,1.2
2019-01-29T07:29:28.551Z,1.2
2019-01-29T07:30:38.648Z,1.14
2019-01-29T07:31:48.761Z,1.29
2019-01-29T07:32:58.902Z,1.29
2019-01-29T07:34:09.012Z,1.25
2019-01-29T07:35:19.117Z,1.17
2019-01-29T07:36:29.217Z,1.21
2019-01-29T07:37:39.330Z,1.18
2019-01-29T07:38:49.442Z,1.21
2019-01-29T07:39:59.542Z,1.2
2019-01-29T07:41:09.672Z,1.25
2019-01-29T07:42:19.778Z,1.18
2019-01-29T07:43:29.879Z,1.22
2019-01-29T07:44:40.002Z,1.2
2019-01-29T07:45:49.747Z,1.22
2019-01-29T07:46:59.844Z,1.24
2019-01-29T07:48:09.937Z,1.22
2019-01-29T07:49:20.050Z,1.22
2019-01-29T07:50:30.177Z,1.22
2019-01-29T07:51:40.296Z,1.25
2019-01-29T07:52:50.409Z,1.33
2019-01-29T07:54:00.526Z,1.24
2019-01-29T07:55:10.651Z,1.24
2019-01-29T07:56:20.506Z,1.18
2019-01-29T07:57:30.640Z,1.28
2019-01-29T07:58:40.738Z,1.28
2019-01-29T07:59:50.837Z,1.28
2019-01-29T08:01:01.043Z,1.25
2019-01-29T08:02:11.150Z,1.33
2019-01-29T08:03:21.262Z,1.3
2019-01-29T08:04:31.381Z,1.29
2019-01-29T08:05:41.550Z,1.35
2019-01-29T08:06:53.256Z,1.33
2019-01-29T08:08:03.379Z,1.35
2019-01-29T08:09:13.507Z,1.29
2019-01-29T08:10:24.691Z,1.32
2019-01-29T08:11:34.599Z,1.32
2019-01-29T08:12:44.703Z,1.25
2019-01-29T08:13:54.848Z,1.29
2019-01-29T08:15:04.978Z,1.35
2019-01-29T08:16:15.550Z,1.3
2019-01-29T08:17:25.803Z,1.3
2019-01-29T08:18:35.926Z,1.35
2019-01-29T08:19:46.033Z,1.33
2019-01-29T08:20:56.160Z,1.32
2019-01-29T08:22:06.297Z,1.39
2019-01-29T08:23:16.389Z,1.43
2019-01-29T08:24:27.793Z,1.47
2019-01-29T08:25:38.060Z,1.46
2019-01-29T08:26:55.702Z,1.43
2019-01-29T08:28:05.819Z,1.43
2019-01-29T08:29:15.933Z,1.48
2019-01-29T08:30:26.066Z,1.47
2019-01-29T08:31:35.917Z,1.55
2019-01-29T08:32:46.017Z,1.53
2019-01-29T08:33:56.130Z,1.5
2019-01-29T08:35:06.259Z,1.5
2019-01-29T08:36:16.368Z,1.54
2019-01-29T08:37:26.490Z,1.58
2019-01-29T08:38:36.612Z,1.53
2019-01-29T08:39:46.722Z,1.69
2019-01-29T08:40:56.833Z,1.7
2019-01-29T08:42:06.941Z,1.7
2019-01-29T08:43:17.043Z,1.72
2019-01-29T08:44:27.145Z,1.8
2019-01-29T08:45:37.262Z,1.72
2019-01-29T08:46:47.415Z,1.8
2019-01-29T08:47:57.526Z,1.77
2019-01-29T08:49:07.403Z,1.88
2019-01-29T08:50:17.502Z,2.03
2019-01-29T08:51:27.652Z,2.09
2019-01-29T08:52:37.774Z,2.03
2019-01-29T08:53:47.890Z,2.06
2019-01-29T08:54:58.028Z,2.08
2019-01-29T08:56:16.209Z,2.19
2019-01-29T08:57:26.310Z,2.3
2019-01-29T08:58:36.413Z,2.39
2019-01-29T08:59:46.523Z,3
2019-01-29T09:00:56.637Z,3.62
2019-01-29T09:02:08.123Z,3.94
2019-01-29T09:03:18.353Z,4.27
2019-01-29T09:04:28.470Z,4.38
2019-01-29T09:05:38.646Z,4.56
2019-01-29T09:06:48.395Z,5.22
2019-01-29T09:07:58.495Z,5.47
2019-01-29T09:09:08.628Z,5.99
2019-01-29T09:10:18.735Z,6.49
2019-01-29T09:11:28.854Z,6.96
2019-01-29T09:12:38.957Z,7.17
2019-01-29T09:13:49.084Z,7.14
2019-01-29T09:14:59.205Z,7
2019-01-29T09:16:09.334Z,7.36
2019-01-29T09:17:19.448Z,7.76
2019-01-29T09:18:29.568Z,8.17
2019-01-29T09:19:39.682Z,8.21
2019-01-29T09:20:49.799Z,8.2
2019-01-29T09:21:59.668Z,7.87
2019-01-29T09:23:09.825Z,7.74
2019-01-29T09:24:19.928Z,7.28
2019-01-29T09:25:30.050Z,7.08
2019-01-29T09:26:39.915Z,6.67
2019-01-29T09:27:50.024Z,6.35
2019-01-29T09:29:00.156Z,5.9
2019-01-29T09:30:10.268Z,5.59
2019-01-29T09:31:20.401Z,5.35
2019-01-29T09:32:30.555Z,5.1
2019-01-29T09:33:40.654Z,4.81
2019-01-29T09:34:50.777Z,4.74
2019-01-29T09:36:00.630Z,4.55
2019-01-29T09:37:10.815Z,4.43
2019-01-29T09:38:20.945Z,4.2
2019-01-29T09:39:31.051Z,4.22
2019-01-29T09:40:41.162Z,4.25
2019-01-29T09:41:51.287Z,4.67
2019-01-29T09:43:01.415Z,4.67
2019-01-29T09:44:11.572Z,4.67
2019-01-29T09:45:21.700Z,4.67
2019-01-29T09:46:31.806Z,4.53
2019-01-29T09:47:42.052Z,4.56
2019-01-29T09:48:52.166Z,4.41
2019-01-29T09:50:02.024Z,4.41
2019-01-29T09:51:12.134Z,4.36
2019-01-29T09:52:22.250Z,4.25
2019-01-29T09:53:32.362Z,4.11
2019-01-29T09:54:42.508Z,4.11
2019-01-29T09:55:52.626Z,4.01
2019-01-29T09:57:02.731Z,4.05
2019-01-29T09:58:12.848Z,3.94
2019-01-29T09:59:22.770Z,3.87
2019-01-29T10:00:32.913Z,4.27
2019-01-29T10:01:43.034Z,4.77
2019-01-29T10:02:52.895Z,5.26
2019-01-29T10:04:03.006Z,5.91
2019-01-29T10:05:13.169Z,6.35
2019-01-29T10:06:23.294Z,6.48
2019-01-29T10:07:33.442Z,6.9
2019-01-29T10:08:43.539Z,7.06
2019-01-29T10:09:53.645Z,7.08
2019-01-29T10:11:04.991Z,7.13
2019-01-29T10:13:31.298Z,7.08
2019-01-29T10:14:41.402Z,7.08
2019-01-29T10:15:51.514Z,7.26
2019-01-29T10:17:01.688Z,7.62
2019-01-29T10:18:11.841Z,7.85
2019-01-29T10:19:21.983Z,8.07
2019-01-29T10:20:32.189Z,8.42
2019-01-29T10:21:42.322Z,8.74
2019-01-29T10:22:52.453Z,9.11
2019-01-29T10:24:02.586Z,9.25
2019-01-29T10:25:12.715Z,9.53
2019-01-29T10:26:22.847Z,9.84
2019-01-29T10:27:32.729Z,9.99
2019-01-29T10:28:42.868Z,10.3
2019-01-29T10:29:53.009Z,10.5
2019-01-29T10:31:03.143Z,10.55
2019-01-29T10:32:13.265Z,10.66
2019-01-29T10:33:23.451Z,10.69
2019-01-29T10:34:33.577Z,10.75
2019-01-29T10:35:43.717Z,10.88
2019-01-29T10:36:53.860Z,11.06
2019-01-29T10:38:04.007Z,11.13
2019-01-29T10:39:14.150Z,11.33
2019-01-29T10:40:24.365Z,11.35
2019-01-29T10:41:34.494Z,11.49
2019-01-29T10:42:44.626Z,11.38
2019-01-29T10:43:54.753Z,11.15
2019-01-29T10:45:04.894Z,10.85
2019-01-29T10:46:14.503Z,10.54
2019-01-29T10:47:24.615Z,10.27
2019-01-29T10:48:35.734Z,10.15
2019-01-29T10:49:45.885Z,9.91
2019-01-29T10:50:56.005Z,9.66
2019-01-29T10:52:06.146Z,9.77
2019-01-29T10:53:16.309Z,9.88
2019-01-29T10:54:26.452Z,10
2019-01-29T10:55:36.636Z,10
2019-01-29T10:56:55.151Z,9.91
2019-01-29T10:58:05.287Z,10.18
2019-01-29T10:59:15.157Z,10.19
2019-01-29T11:00:25.328Z,10.11
2019-01-29T11:01:35.441Z,10.26
2019-01-29T11:02:45.566Z,10.47
2019-01-29T11:03:55.685Z,10.5
2019-01-29T11:05:05.843Z,10.65
2019-01-29T11:06:15.966Z,10.72
2019-01-29T11:07:26.119Z,10.9
2019-01-29T11:08:36.262Z,11.08
2019-01-29T11:09:48.273Z,11.23
2019-01-29T11:10:58.642Z,11.35
2019-01-29T11:12:08.763Z,11.5
2019-01-29T11:13:18.918Z,11.74
2019-01-29T11:14:29.084Z,11.89
2019-01-29T11:15:39.212Z,11.84
2019-01-29T11:16:49.359Z,11.68
2019-01-29T11:17:59.474Z,11.53
2019-01-29T11:19:09.608Z,11.45
2019-01-29T11:20:19.743Z,11.34
2019-01-29T11:21:29.902Z,10.97
2019-01-29T11:22:40.065Z,10.47
2019-01-29T11:23:50.220Z,10.15
2019-01-29T11:25:00.341Z,9.62
2019-01-29T11:26:10.515Z,9.3
2019-01-29T11:27:20.696Z,8.93
2019-01-29T11:28:30.838Z,8.83
2019-01-29T11:29:40.970Z,8.8
2019-01-29T11:30:51.123Z,8.57
2019-01-29T11:32:01.282Z,8.53
2019-01-29T11:33:11.433Z,8.57
2019-01-29T11:34:22.552Z,8.52
2019-01-29T11:35:32.706Z,8.45
2019-01-29T11:36:42.832Z,8.3
2019-01-29T11:37:52.971Z,8.02
2019-01-29T11:39:03.086Z,7.85
2019-01-29T11:40:13.221Z,7.8
2019-01-29T11:41:24.730Z,7.64
2019-01-29T11:42:34.852Z,7.49
2019-01-29T11:43:44.977Z,7.41
2019-01-29T11:44:55.102Z,7.29
2019-01-29T11:46:05.246Z,7.41
2019-01-29T11:47:15.390Z,7.58
2019-01-29T11:48:25.521Z,7.39
2019-01-29T11:49:35.646Z,7.29
2019-01-29T11:50:45.518Z,7.21
2019-01-29T11:51:55.646Z,7.21
2019-01-29T11:53:05.782Z,7.03
2019-01-29T11:54:15.919Z,7.22
2019-01-29T11:55:26.056Z,7.22
2019-01-29T11:56:36.187Z,7.34
2019-01-29T11:57:46.888Z,7.34
2019-01-29T11:58:57.104Z,7.2
2019-01-29T12:00:07.241Z,7.15
2019-01-29T12:01:17.368Z,7.06
2019-01-29T12:02:33.255Z,6.87
2019-01-29T12:03:43.396Z,6.59
2019-01-29T12:04:53.287Z,6.45
2019-01-29T12:06:03.477Z,6.16
2019-01-29T12:07:13.598Z,5.96
2019-01-29T12:08:24.962Z,5.75
2019-01-29T12:09:35.114Z,5.65
2019-01-29T12:10:45.241Z,5.59
2019-01-29T12:11:55.355Z,5.44
2019-01-29T12:13:07.322Z,5.31
2019-01-29T12:14:17.436Z,5.31
2019-01-29T12:15:27.545Z,5.32
2019-01-29T12:16:37.689Z,5.16
2019-01-29T12:17:47.815Z,5.13
2019-01-29T12:18:58.355Z,5.1
2019-01-29T12:20:08.738Z,5.07
2019-01-29T12:21:18.872Z,5.04
2019-01-29T12:22:28.989Z,5.1
2019-01-29T12:23:39.108Z,5.06
2019-01-29T12:24:49.218Z,5.14
2019-01-29T12:25:59.368Z,5.18
2019-01-29T12:27:18.255Z,5.06
2019-01-29T12:28:28.399Z,5.11
2019-01-29T12:29:38.527Z,5.11
2019-01-29T12:30:48.391Z,5.08
2019-01-29T12:31:58.517Z,5.13
2019-01-29T12:33:08.653Z,5.06
2019-01-29T12:34:19.747Z,5
2019-01-29T12:35:29.892Z,5.03
2019-01-29T12:36:40.006Z,4.99
2019-01-29T12:37:50.142Z,4.92
2019-01-29T12:39:01.231Z,4.95
2019-01-29T12:40:11.346Z,4.85
2019-01-29T12:41:21.231Z,4.95
2019-01-29T12:42:31.369Z,4.9
2019-01-29T12:43:41.521Z,4.83
2019-01-29T12:44:51.667Z,4.81
2019-01-29T12:46:01.823Z,4.74
2019-01-29T12:47:11.959Z,4.68
2019-01-29T12:48:22.080Z,4.68
2019-01-29T12:49:31.959Z,4.7
2019-01-29T12:50:42.097Z,4.62
2019-01-29T12:51:52.308Z,4.7
2019-01-29T12:53:03.828Z,4.56
2019-01-29T12:54:13.845Z,4.55
2019-01-29T12:55:23.958Z,4.49
2019-01-29T12:56:34.086Z,4.43
2019-01-29T12:57:44.238Z,4.43
2019-01-29T12:58:54.354Z,4.31
2019-01-29T13:00:04.505Z,4.34
2019-01-29T13:01:14.632Z,4.31
2019-01-29T13:02:24.762Z,4.31
2019-01-29T13:03:34.897Z,4.37
2019-01-29T13:04:45.012Z,4.3
2019-01-29T13:05:55.139Z,4.37
2019-01-29T13:07:05.259Z,4.43
2019-01-29T13:08:15.389Z,4.46
2019-01-29T13:09:25.526Z,4.47
2019-01-29T13:10:35.658Z,4.53
2019-01-29T13:11:45.772Z,4.56
2019-01-29T13:12:56.010Z,4.56
2019-01-29T13:14:07.119Z,4.7
2019-01-29T13:15:17.255Z,4.55
2019-01-29T13:16:27.359Z,4.49
2019-01-29T13:17:37.501Z,4.47
2019-01-29T13:18:47.628Z,4.28
2019-01-29T13:19:57.778Z,4.31
2019-01-29T13:21:08.070Z,4.31
2019-01-29T13:22:18.312Z,4.31
2019-01-29T13:23:28.422Z,4.31
2019-01-29T13:24:38.553Z,4.34
2019-01-29T13:25:48.679Z,4.27
2019-01-29T13:26:58.830Z,4.4
2019-01-29T13:28:08.954Z,4.33
2019-01-29T13:29:19.172Z,4.33
2019-01-29T13:30:29.406Z,4.23
2019-01-29T13:31:39.569Z,4.3
2019-01-29T13:32:50.073Z,4.28
2019-01-29T13:34:00.218Z,4.28
2019-01-29T13:35:10.093Z,4.22
2019-01-29T13:36:20.218Z,4.31
2019-01-29T13:37:30.427Z,4.41
2019-01-29T13:38:40.540Z,4.43
2019-01-29T13:39:50.654Z,4.41
2019-01-29T13:41:00.792Z,4.49
2019-01-29T13:42:10.928Z,4.41
2019-01-29T13:43:21.055Z,4.49
2019-01-29T13:44:31.208Z,4.41
2019-01-29T13:45:41.089Z,4.46
2019-01-29T13:46:52.826Z,4.36
2019-01-29T13:48:03.007Z,4.36
2019-01-29T13:49:13.130Z,4.28
2019-01-29T13:50:23.255Z,4.23
2019-01-29T13:51:33.123Z,4.22
2019-01-29T13:52:43.235Z,4.2
2019-01-29T13:53:53.359Z,4.12
2019-01-29T13:55:03.484Z,4.18
2019-01-29T13:56:13.630Z,4.12
2019-01-29T13:57:23.753Z,4.18
2019-01-29T13:58:33.864Z,4.2
2019-01-29T13:59:43.987Z,4.19
2019-01-29T14:00:53.895Z,4.19
2019-01-29T14:02:03.784Z,4.22
2019-01-29T14:03:13.964Z,4.12
2019-01-29T14:04:24.227Z,4.13
2019-01-29T14:05:34.363Z,4.05
2019-01-29T14:06:44.479Z,4.03
2019-01-29T14:07:54.601Z,3.98
2019-01-29T14:09:04.726Z,3.98
2019-01-29T14:10:14.836Z,4.03
2019-01-29T14:11:25.006Z,4.03
2019-01-29T14:12:35.755Z,3.98
2019-01-29T14:13:45.919Z,4.09
2019-01-29T14:14:56.031Z,4.04
2019-01-29T14:16:06.162Z,4.13
2019-01-29T14:17:16.048Z,4.05
2019-01-29T14:18:26.169Z,4.16
2019-01-29T14:19:36.301Z,4.23
2019-01-29T14:20:46.469Z,4.2
2019-01-29T14:21:56.591Z,4.19
2019-01-29T14:23:06.724Z,4.13
2019-01-29T14:24:16.841Z,4.18
2019-01-29T14:25:27.005Z,4.13
2019-01-29T14:26:37.147Z,4.15
2019-01-29T14:27:55.300Z,4.04
2019-01-29T14:29:05.466Z,4.08
2019-01-29T14:30:15.686Z,4.13
2019-01-29T14:31:25.851Z,4.11
2019-01-29T14:32:36.706Z,4.01
2019-01-29T14:33:47.053Z,4.04
2019-01-29T14:34:57.335Z,4.03
2019-01-29T14:36:16.139Z,4.18
2019-01-29T14:37:26.993Z,4.16
2019-01-29T14:38:37.157Z,4.12
2019-01-29T14:39:47.291Z,4.11
2019-01-29T14:40:57.476Z,4.12
2019-01-29T14:42:08.669Z,4.12
2019-01-29T14:43:18.881Z,4.13
2019-01-29T14:44:29.014Z,4.16
2019-01-29T14:45:39.136Z,4.18
2019-01-29T14:46:49.303Z,4.03
2019-01-29T14:47:59.463Z,4.08
2019-01-29T14:49:09.595Z,4
2019-01-29T14:50:19.830Z,4.08
2019-01-29T14:51:29.966Z,4.03
2019-01-29T14:52:40.096Z,4
2019-01-29T14:53:49.987Z,4.08
2019-01-29T14:55:00.159Z,4.09
2019-01-29T14:56:10.748Z,4.04
2019-01-29T14:57:20.666Z,3.98
2019-01-29T14:58:30.853Z,3.98
2019-01-29T14:59:41.557Z,4.04
2019-01-29T15:00:51.676Z,3.94
2019-01-29T15:02:01.816Z,4.01
2019-01-29T15:03:13.901Z,3.9
2019-01-29T15:04:24.018Z,3.94
2019-01-29T15:05:34.200Z,3.85
2019-01-29T15:06:44.385Z,3.87
2019-01-29T15:07:54.519Z,3.86
2019-01-29T15:09:07.156Z,3.86
2019-01-29T15:10:17.376Z,3.86
2019-01-29T15:11:27.612Z,3.83
2019-01-29T15:12:37.675Z,3.82
2019-01-29T15:13:47.989Z,3.83
2019-01-29T15:14:58.163Z,3.8
2019-01-29T15:16:08.293Z,3.76
2019-01-29T15:17:18.412Z,3.83
2019-01-29T15:18:28.555Z,3.77
2019-01-29T15:19:40.306Z,3.82
2019-01-29T15:20:50.525Z,3.83
2019-01-29T15:22:00.646Z,3.76
2019-01-29T15:23:10.808Z,3.86
2019-01-29T15:24:20.959Z,3.76
2019-01-29T15:25:31.088Z,3.86
2019-01-29T15:26:40.965Z,3.79
2019-01-29T15:27:51.102Z,3.8
2019-01-29T15:29:01.248Z,3.8
2019-01-29T15:30:11.557Z,3.75
2019-01-29T15:31:21.710Z,3.76
2019-01-29T15:32:31.904Z,3.67
2019-01-29T15:33:43.619Z,3.68
2019-01-29T15:34:53.771Z,3.69
2019-01-29T15:36:03.929Z,3.57
2019-01-29T15:37:14.088Z,3.75
2019-01-29T15:38:24.239Z,3.73